sensor_id;sensor_type;location;lat;lon;timestamp;pressure;altitude;pressure_sealevel;temperature;humidity
53246;BME280;39569;51.090;-1.786;2023-05-01T00:00:33;101179.28;;;21.93;48.08
53246;BME280;39569;51.090;-1.786;2023-05-01T00:03:01;101182.59;;;21.95;48.20
53246;BME280;39569;51.090;-1.786;2023-05-01T00:05:28;101179.72;;;21.43;48.87
53246;BME280;39569;51.090;-1.786;2023-05-01T00:07:57;101179.59;;;21.50;48.71
53246;BME280;39569;51.090;-1.786;2023-05-01T00:10:23;101175.13;;;21.79;48.18
53246;BME280;39569;51.090;-1.786;2023-05-01T00:12:50;101173.47;;;21.78;48.22
53246;BME280;39569;51.090;-1.786;2023-05-01T00:15:17;101170.88;;;21.60;48.10
53246;BME280;39569;51.090;-1.786;2023-05-01T00:17:44;101175.66;;;20.64;50.85
53246;BME280;39569;51.090;-1.786;2023-05-01T00:20:12;101176.19;;;21.02;50.23
53246;BME280;39569;51.090;-1.786;2023-05-01T00:22:39;101173.63;;;20.59;51.09
53246;BME280;39569;51.090;-1.786;2023-05-01T00:25:06;101162.31;;;20.62;51.24
53246;BME280;39569;51.090;-1.786;2023-05-01T00:27:34;101161.88;;;21.36;49.54
53246;BME280;39569;51.090;-1.786;2023-05-01T00:30:01;101161.09;;;21.82;48.39
53246;BME280;39569;51.090;-1.786;2023-05-01T00:32:28;101158.47;;;21.64;48.86
53246;BME280;39569;51.090;-1.786;2023-05-01T00:34:55;101159.94;;;20.84;50.41
53246;BME280;39569;51.090;-1.786;2023-05-01T00:37:23;101152.81;;;20.53;51.63
53246;BME280;39569;51.090;-1.786;2023-05-01T00:39:50;101163.97;;;19.91;53.47
53246;BME280;39569;51.090;-1.786;2023-05-01T00:42:17;101160.91;;;19.63;54.05
53246;BME280;39569;51.090;-1.786;2023-05-01T00:44:43;101155.69;;;20.04;53.05
53246;BME280;39569;51.090;-1.786;2023-05-01T00:47:10;101149.00;;;20.42;52.31
53246;BME280;39569;51.090;-1.786;2023-05-01T00:49:37;101148.28;;;20.95;50.85
53246;BME280;39569;51.090;-1.786;2023-05-01T00:52:04;101140.13;;;21.36;49.57
53246;BME280;39569;51.090;-1.786;2023-05-01T00:54:32;101141.06;;;21.53;49.55
53246;BME280;39569;51.090;-1.786;2023-05-01T00:56:59;101133.28;;;21.45;49.28
53246;BME280;39569;51.090;-1.786;2023-05-01T00:59:25;101144.13;;;21.68;48.20
53246;BME280;39569;51.090;-1.786;2023-05-01T01:01:52;101141.56;;;21.73;48.29
53246;BME280;39569;51.090;-1.786;2023-05-01T01:04:20;101141.06;;;21.53;48.33
53246;BME280;39569;51.090;-1.786;2023-05-01T01:06:52;101146.84;;;21.33;49.25
53246;BME280;39569;51.090;-1.786;2023-05-01T01:09:29;101141.41;;;21.68;48.05
53246;BME280;39569;51.090;-1.786;2023-05-01T01:12:05;101148.16;;;21.42;48.31
53246;BME280;39569;51.090;-1.786;2023-05-01T01:14:39;101146.97;;;21.38;47.98
53246;BME280;39569;51.090;-1.786;2023-05-01T01:17:13;101144.94;;;21.22;47.84
53246;BME280;39569;51.090;-1.786;2023-05-01T01:20:09;101134.53;;;21.08;48.50
53246;BME280;39569;51.090;-1.786;2023-05-01T01:22:44;101142.00;;;20.94;48.65
53246;BME280;39569;51.090;-1.786;2023-05-01T01:25:49;101128.97;;;21.14;48.00
53246;BME280;39569;51.090;-1.786;2023-05-01T01:28:28;101127.50;;;21.41;47.54
53246;BME280;39569;51.090;-1.786;2023-05-01T01:31:16;101118.50;;;21.41;47.13
53246;BME280;39569;51.090;-1.786;2023-05-01T01:34:01;101110.47;;;21.34;46.39
53246;BME280;39569;51.090;-1.786;2023-05-01T01:36:41;101110.72;;;20.92;46.95
53246;BME280;39569;51.090;-1.786;2023-05-01T01:39:13;101105.19;;;20.98;47.37
53246;BME280;39569;51.090;-1.786;2023-05-01T01:41:46;101106.84;;;20.99;47.01
53246;BME280;39569;51.090;-1.786;2023-05-01T01:44:18;101097.72;;;20.94;47.24
53246;BME280;39569;51.090;-1.786;2023-05-01T01:46:47;101102.19;;;20.88;47.02
53246;BME280;39569;51.090;-1.786;2023-05-01T01:49:18;101098.59;;;20.65;47.17
53246;BME280;39569;51.090;-1.786;2023-05-01T01:51:49;101092.78;;;20.61;47.35
53246;BME280;39569;51.090;-1.786;2023-05-01T01:54:18;101091.03;;;20.37;47.64
53246;BME280;39569;51.090;-1.786;2023-05-01T01:56:48;101082.25;;;19.87;48.66
53246;BME280;39569;51.090;-1.786;2023-05-01T01:59:17;101084.81;;;20.18;48.05
53246;BME280;39569;51.090;-1.786;2023-05-01T02:01:46;101081.69;;;20.15;47.85
53246;BME280;39569;51.090;-1.786;2023-05-01T02:04:17;101083.81;;;20.13;47.76
53246;BME280;39569;51.090;-1.786;2023-05-01T02:06:44;101075.78;;;20.06;47.81
53246;BME280;39569;51.090;-1.786;2023-05-01T02:09:15;101075.16;;;20.22;47.20
53246;BME280;39569;51.090;-1.786;2023-05-01T02:11:44;101074.81;;;20.19;47.01
53246;BME280;39569;51.090;-1.786;2023-05-01T02:14:13;101076.38;;;20.08;47.43
53246;BME280;39569;51.090;-1.786;2023-05-01T02:16:41;101071.38;;;20.05;46.90
53246;BME280;39569;51.090;-1.786;2023-05-01T02:19:09;101074.19;;;19.99;46.97
53246;BME280;39569;51.090;-1.786;2023-05-01T02:21:40;101068.31;;;19.84;46.89
53246;BME280;39569;51.090;-1.786;2023-05-01T02:24:08;101082.53;;;19.61;47.19
53246;BME280;39569;51.090;-1.786;2023-05-01T02:26:40;101085.72;;;19.58;47.31
53246;BME280;39569;51.090;-1.786;2023-05-01T02:29:09;101074.50;;;19.54;47.22
53246;BME280;39569;51.090;-1.786;2023-05-01T02:31:36;101069.97;;;19.48;47.22
53246;BME280;39569;51.090;-1.786;2023-05-01T02:34:02;101072.53;;;19.43;47.33
53246;BME280;39569;51.090;-1.786;2023-05-01T02:36:29;101069.72;;;19.25;47.33
53246;BME280;39569;51.090;-1.786;2023-05-01T02:38:59;101077.06;;;19.25;47.42
53246;BME280;39569;51.090;-1.786;2023-05-01T02:41:26;101075.16;;;19.25;47.27
53246;BME280;39569;51.090;-1.786;2023-05-01T02:43:56;101072.34;;;19.14;47.37
53246;BME280;39569;51.090;-1.786;2023-05-01T02:46:25;101065.28;;;19.13;47.36
53246;BME280;39569;51.090;-1.786;2023-05-01T02:48:53;101068.56;;;18.90;47.74
53246;BME280;39569;51.090;-1.786;2023-05-01T02:51:22;101068.53;;;18.97;47.72
53246;BME280;39569;51.090;-1.786;2023-05-01T02:53:49;101064.38;;;18.94;47.54
53246;BME280;39569;51.090;-1.786;2023-05-01T02:56:18;101058.81;;;18.89;47.63
53246;BME280;39569;51.090;-1.786;2023-05-01T02:58:44;101062.16;;;18.85;47.60
53246;BME280;39569;51.090;-1.786;2023-05-01T03:01:11;101057.81;;;18.84;47.77
53246;BME280;39569;51.090;-1.786;2023-05-01T03:03:38;101066.09;;;18.89;47.91
53246;BME280;39569;51.090;-1.786;2023-05-01T03:06:05;101065.78;;;18.79;48.11
53246;BME280;39569;51.090;-1.786;2023-05-01T03:08:31;101054.88;;;18.85;47.97
53246;BME280;39569;51.090;-1.786;2023-05-01T03:10:58;101059.38;;;18.73;48.30
53246;BME280;39569;51.090;-1.786;2023-05-01T03:13:26;101062.88;;;18.74;48.74
53246;BME280;39569;51.090;-1.786;2023-05-01T03:15:53;101056.03;;;18.71;49.03
53246;BME280;39569;51.090;-1.786;2023-05-01T03:18:19;101071.50;;;18.89;48.61
53246;BME280;39569;51.090;-1.786;2023-05-01T03:20:53;101061.28;;;18.91;48.65
53246;BME280;39569;51.090;-1.786;2023-05-01T03:23:21;101067.66;;;18.03;51.88
53246;BME280;39569;51.090;-1.786;2023-05-01T03:25:48;101073.00;;;17.00;55.88
53246;BME280;39569;51.090;-1.786;2023-05-01T03:28:15;101067.13;;;17.75;53.95
53246;BME280;39569;51.090;-1.786;2023-05-01T03:30:43;101072.19;;;17.19;55.95
53246;BME280;39569;51.090;-1.786;2023-05-01T03:33:10;101073.19;;;17.37;55.48
53246;BME280;39569;51.090;-1.786;2023-05-01T03:35:37;101070.88;;;17.60;54.63
53246;BME280;39569;51.090;-1.786;2023-05-01T03:38:04;101070.22;;;17.78;54.79
53246;BME280;39569;51.090;-1.786;2023-05-01T03:40:31;101073.66;;;18.05;53.41
53246;BME280;39569;51.090;-1.786;2023-05-01T03:42:58;101070.78;;;18.37;52.82
53246;BME280;39569;51.090;-1.786;2023-05-01T03:45:24;101075.81;;;18.34;53.30
53246;BME280;39569;51.090;-1.786;2023-05-01T03:47:53;101059.03;;;18.19;54.06
53246;BME280;39569;51.090;-1.786;2023-05-01T03:50:20;101065.66;;;18.23;53.44
53246;BME280;39569;51.090;-1.786;2023-05-01T03:52:46;101064.88;;;18.85;52.21
53246;BME280;39569;51.090;-1.786;2023-05-01T03:55:13;101058.75;;;19.63;49.94
53246;BME280;39569;51.090;-1.786;2023-05-01T03:57:40;101064.88;;;19.58;49.98
53246;BME280;39569;51.090;-1.786;2023-05-01T04:00:08;101057.91;;;18.71;51.85
53246;BME280;39569;51.090;-1.786;2023-05-01T04:02:36;101056.38;;;19.30;50.74
53246;BME280;39569;51.090;-1.786;2023-05-01T04:05:05;101047.25;;;19.25;51.11
53246;BME280;39569;51.090;-1.786;2023-05-01T04:07:31;101049.38;;;19.66;49.88
53246;BME280;39569;51.090;-1.786;2023-05-01T04:09:58;101059.41;;;19.40;50.05
53246;BME280;39569;51.090;-1.786;2023-05-01T04:12:25;101052.63;;;19.31;50.72
53246;BME280;39569;51.090;-1.786;2023-05-01T04:14:52;101056.28;;;19.43;50.51
53246;BME280;39569;51.090;-1.786;2023-05-01T04:17:18;101051.22;;;18.98;51.75
53246;BME280;39569;51.090;-1.786;2023-05-01T04:19:45;101055.13;;;19.08;51.40
53246;BME280;39569;51.090;-1.786;2023-05-01T04:22:13;101046.97;;;18.15;53.35
53246;BME280;39569;51.090;-1.786;2023-05-01T04:24:40;101042.16;;;17.79;54.54
53246;BME280;39569;51.090;-1.786;2023-05-01T04:27:07;101038.81;;;18.66;52.23
53246;BME280;39569;51.090;-1.786;2023-05-01T04:29:34;101040.22;;;18.68;52.29
53246;BME280;39569;51.090;-1.786;2023-05-01T04:32:00;101036.22;;;19.02;51.65
53246;BME280;39569;51.090;-1.786;2023-05-01T04:34:27;101032.16;;;19.72;49.53
53246;BME280;39569;51.090;-1.786;2023-05-01T04:36:54;101028.56;;;19.78;49.33
53246;BME280;39569;51.090;-1.786;2023-05-01T04:39:23;101038.13;;;18.70;51.84
53246;BME280;39569;51.090;-1.786;2023-05-01T04:41:50;101031.53;;;17.84;53.92
53246;BME280;39569;51.090;-1.786;2023-05-01T04:44:17;101043.75;;;18.31;53.30
53246;BME280;39569;51.090;-1.786;2023-05-01T04:46:43;101034.31;;;18.53;52.00
53246;BME280;39569;51.090;-1.786;2023-05-01T04:49:10;101045.13;;;18.15;52.87
53246;BME280;39569;51.090;-1.786;2023-05-01T04:51:37;101033.09;;;18.74;51.30
53246;BME280;39569;51.090;-1.786;2023-05-01T04:54:04;101034.09;;;18.79;51.37
53246;BME280;39569;51.090;-1.786;2023-05-01T04:56:32;101035.59;;;18.44;52.05
53246;BME280;39569;51.090;-1.786;2023-05-01T04:58:58;101036.66;;;18.99;50.91
53246;BME280;39569;51.090;-1.786;2023-05-01T05:01:25;101031.09;;;18.31;53.19
53246;BME280;39569;51.090;-1.786;2023-05-01T05:03:52;101026.88;;;17.98;54.31
53246;BME280;39569;51.090;-1.786;2023-05-01T05:06:19;101031.50;;;18.66;52.27
53246;BME280;39569;51.090;-1.786;2023-05-01T05:08:45;101031.34;;;18.23;53.68
53246;BME280;39569;51.090;-1.786;2023-05-01T05:11:16;101041.59;;;18.52;53.16
53246;BME280;39569;51.090;-1.786;2023-05-01T05:13:44;101039.31;;;18.81;52.31
53246;BME280;39569;51.090;-1.786;2023-05-01T05:16:11;101033.72;;;19.00;52.34
53246;BME280;39569;51.090;-1.786;2023-05-01T05:18:38;101026.47;;;19.43;51.22
53246;BME280;39569;51.090;-1.786;2023-05-01T05:21:05;101027.97;;;18.90;52.36
53246;BME280;39569;51.090;-1.786;2023-05-01T05:23:32;101032.59;;;18.21;54.66
53246;BME280;39569;51.090;-1.786;2023-05-01T05:25:59;101035.19;;;18.72;52.66
53246;BME280;39569;51.090;-1.786;2023-05-01T05:28:26;101029.16;;;19.80;50.66
53246;BME280;39569;51.090;-1.786;2023-05-01T05:30:55;101022.56;;;19.57;50.43
53246;BME280;39569;51.090;-1.786;2023-05-01T05:33:22;101034.09;;;19.53;50.83
53246;BME280;39569;51.090;-1.786;2023-05-01T05:35:49;101041.84;;;19.68;50.47
53246;BME280;39569;51.090;-1.786;2023-05-01T05:38:16;101038.81;;;19.57;51.08
53246;BME280;39569;51.090;-1.786;2023-05-01T05:40:43;101040.06;;;19.55;51.22
53246;BME280;39569;51.090;-1.786;2023-05-01T05:43:10;101052.56;;;20.10;49.69
53246;BME280;39569;51.090;-1.786;2023-05-01T05:45:37;101042.53;;;20.59;48.68
53246;BME280;39569;51.090;-1.786;2023-05-01T05:48:05;101046.19;;;20.05;50.36
53246;BME280;39569;51.090;-1.786;2023-05-01T05:50:32;101045.09;;;20.24;49.75
53246;BME280;39569;51.090;-1.786;2023-05-01T05:52:58;101044.91;;;19.71;51.19
53246;BME280;39569;51.090;-1.786;2023-05-01T05:55:25;101037.38;;;19.55;51.53
53246;BME280;39569;51.090;-1.786;2023-05-01T05:57:52;101044.78;;;18.99;52.77
53246;BME280;39569;51.090;-1.786;2023-05-01T06:00:19;101046.88;;;19.82;50.60
53246;BME280;39569;51.090;-1.786;2023-05-01T06:02:46;101048.88;;;20.05;50.30
53246;BME280;39569;51.090;-1.786;2023-05-01T06:05:14;101052.75;;;20.45;49.23
53246;BME280;39569;51.090;-1.786;2023-05-01T06:07:41;101050.19;;;20.62;48.57
53246;BME280;39569;51.090;-1.786;2023-05-01T06:10:08;101050.56;;;19.88;50.21
53246;BME280;39569;51.090;-1.786;2023-05-01T06:12:36;101050.06;;;20.09;50.17
53246;BME280;39569;51.090;-1.786;2023-05-01T06:15:04;101049.78;;;19.63;51.19
53246;BME280;39569;51.090;-1.786;2023-05-01T06:17:31;101048.28;;;19.85;51.01
53246;BME280;39569;51.090;-1.786;2023-05-01T06:19:58;101044.59;;;19.97;50.30
53246;BME280;39569;51.090;-1.786;2023-05-01T06:22:27;101053.88;;;18.80;53.63
53246;BME280;39569;51.090;-1.786;2023-05-01T06:24:54;101057.91;;;19.44;52.05
53246;BME280;39569;51.090;-1.786;2023-05-01T06:27:21;101060.81;;;19.00;53.02
53246;BME280;39569;51.090;-1.786;2023-05-01T06:29:47;101061.63;;;19.86;51.21
53246;BME280;39569;51.090;-1.786;2023-05-01T06:32:15;101067.44;;;21.20;48.00
53246;BME280;39569;51.090;-1.786;2023-05-01T06:34:42;101074.75;;;21.42;47.47
53246;BME280;39569;51.090;-1.786;2023-05-01T06:37:09;101070.56;;;20.94;48.40
53246;BME280;39569;51.090;-1.786;2023-05-01T06:39:37;101082.28;;;20.65;49.22
53246;BME280;39569;51.090;-1.786;2023-05-01T06:42:03;101079.50;;;21.24;47.91
53246;BME280;39569;51.090;-1.786;2023-05-01T06:44:32;101080.31;;;21.24;47.55
53246;BME280;39569;51.090;-1.786;2023-05-01T06:46:58;101084.97;;;20.94;48.61
53246;BME280;39569;51.090;-1.786;2023-05-01T06:49:26;101086.69;;;21.18;48.04
53246;BME280;39569;51.090;-1.786;2023-05-01T06:51:52;101090.00;;;21.78;46.55
53246;BME280;39569;51.090;-1.786;2023-05-01T06:54:19;101084.22;;;21.75;47.02
53246;BME280;39569;51.090;-1.786;2023-05-01T06:56:47;101088.28;;;20.25;49.83
53246;BME280;39569;51.090;-1.786;2023-05-01T06:59:14;101097.81;;;21.28;47.70
53246;BME280;39569;51.090;-1.786;2023-05-01T07:01:41;101094.09;;;22.04;46.15
53246;BME280;39569;51.090;-1.786;2023-05-01T07:04:07;101091.63;;;22.02;45.94
53246;BME280;39569;51.090;-1.786;2023-05-01T07:06:35;101089.44;;;22.84;44.51
53246;BME280;39569;51.090;-1.786;2023-05-01T07:09:02;101083.78;;;22.74;44.42
53246;BME280;39569;51.090;-1.786;2023-05-01T07:11:29;101079.75;;;22.48;45.06
53246;BME280;39569;51.090;-1.786;2023-05-01T07:13:59;101079.75;;;22.48;44.64
53246;BME280;39569;51.090;-1.786;2023-05-01T07:16:26;101082.50;;;22.36;45.47
53246;BME280;39569;51.090;-1.786;2023-05-01T07:18:53;101083.34;;;22.93;44.79
53246;BME280;39569;51.090;-1.786;2023-05-01T07:21:19;101091.53;;;23.10;43.83
53246;BME280;39569;51.090;-1.786;2023-05-01T07:23:46;101090.94;;;23.08;43.82
53246;BME280;39569;51.090;-1.786;2023-05-01T07:26:13;101092.69;;;22.41;44.82
53246;BME280;39569;51.090;-1.786;2023-05-01T07:28:39;101095.22;;;23.04;44.01
53246;BME280;39569;51.090;-1.786;2023-05-01T07:31:09;101105.97;;;23.60;43.55
53246;BME280;39569;51.090;-1.786;2023-05-01T07:33:36;101108.84;;;23.04;44.08
53246;BME280;39569;51.090;-1.786;2023-05-01T07:36:03;101103.75;;;23.40;43.89
53246;BME280;39569;51.090;-1.786;2023-05-01T07:38:30;101109.06;;;23.47;44.04
53246;BME280;39569;51.090;-1.786;2023-05-01T07:40:56;101107.78;;;23.21;44.30
53246;BME280;39569;51.090;-1.786;2023-05-01T07:43:23;101110.75;;;23.03;44.00
53246;BME280;39569;51.090;-1.786;2023-05-01T07:45:53;101119.22;;;23.90;43.54
53246;BME280;39569;51.090;-1.786;2023-05-01T07:48:22;101109.22;;;24.17;42.68
53246;BME280;39569;51.090;-1.786;2023-05-01T07:50:49;101111.84;;;23.90;43.02
53246;BME280;39569;51.090;-1.786;2023-05-01T07:53:16;101101.78;;;24.34;42.65
53246;BME280;39569;51.090;-1.786;2023-05-01T07:55:42;101105.09;;;24.36;42.62
53246;BME280;39569;51.090;-1.786;2023-05-01T07:58:09;101099.81;;;24.29;42.25
53246;BME280;39569;51.090;-1.786;2023-05-01T08:00:36;101108.38;;;23.95;43.01
53246;BME280;39569;51.090;-1.786;2023-05-01T08:03:03;101098.03;;;24.18;42.30
53246;BME280;39569;51.090;-1.786;2023-05-01T08:05:31;101107.56;;;23.78;43.31
53246;BME280;39569;51.090;-1.786;2023-05-01T08:07:58;101105.88;;;24.58;42.12
53246;BME280;39569;51.090;-1.786;2023-05-01T08:10:24;101115.25;;;24.19;42.88
53246;BME280;39569;51.090;-1.786;2023-05-01T08:12:52;101109.75;;;24.14;42.31
53246;BME280;39569;51.090;-1.786;2023-05-01T08:15:19;101102.84;;;24.55;41.91
53246;BME280;39569;51.090;-1.786;2023-05-01T08:17:46;101102.78;;;24.50;42.24
53246;BME280;39569;51.090;-1.786;2023-05-01T08:20:13;101104.22;;;24.57;41.03
53246;BME280;39569;51.090;-1.786;2023-05-01T08:22:41;101106.16;;;24.83;41.01
53246;BME280;39569;51.090;-1.786;2023-05-01T08:25:08;101117.25;;;24.72;41.77
53246;BME280;39569;51.090;-1.786;2023-05-01T08:27:34;101107.72;;;24.74;41.16
53246;BME280;39569;51.090;-1.786;2023-05-01T08:30:01;101109.91;;;24.51;41.80
53246;BME280;39569;51.090;-1.786;2023-05-01T08:32:28;101116.59;;;24.38;41.80
53246;BME280;39569;51.090;-1.786;2023-05-01T08:34:55;101118.91;;;23.70;43.09
53246;BME280;39569;51.090;-1.786;2023-05-01T08:37:22;101123.28;;;23.87;42.41
53246;BME280;39569;51.090;-1.786;2023-05-01T08:39:50;101118.44;;;23.94;42.53
53246;BME280;39569;51.090;-1.786;2023-05-01T08:42:17;101116.03;;;23.98;43.52
53246;BME280;39569;51.090;-1.786;2023-05-01T08:44:45;101117.88;;;24.57;42.03
53246;BME280;39569;51.090;-1.786;2023-05-01T08:47:15;101121.50;;;24.63;41.88
53246;BME280;39569;51.090;-1.786;2023-05-01T08:49:43;101116.25;;;24.56;41.61
53246;BME280;39569;51.090;-1.786;2023-05-01T08:52:11;101128.13;;;26.03;39.65
53246;BME280;39569;51.090;-1.786;2023-05-01T08:54:42;101120.28;;;26.17;38.79
53246;BME280;39569;51.090;-1.786;2023-05-01T08:57:11;101123.09;;;26.32;38.45
53246;BME280;39569;51.090;-1.786;2023-05-01T08:59:39;101117.91;;;26.36;39.51
53246;BME280;39569;51.090;-1.786;2023-05-01T09:02:07;101123.31;;;25.74;39.22
53246;BME280;39569;51.090;-1.786;2023-05-01T09:04:35;101122.03;;;26.43;38.19
53246;BME280;39569;51.090;-1.786;2023-05-01T09:07:03;101122.28;;;26.37;38.27
53246;BME280;39569;51.090;-1.786;2023-05-01T09:09:31;101118.19;;;26.44;37.72
53246;BME280;39569;51.090;-1.786;2023-05-01T09:12:00;101123.13;;;25.90;39.44
53246;BME280;39569;51.090;-1.786;2023-05-01T09:14:31;101130.53;;;25.90;39.02
53246;BME280;39569;51.090;-1.786;2023-05-01T09:16:58;101136.41;;;25.67;40.29
53246;BME280;39569;51.090;-1.786;2023-05-01T09:19:25;101145.41;;;26.04;39.04
53246;BME280;39569;51.090;-1.786;2023-05-01T09:21:52;101128.59;;;26.37;38.39
53246;BME280;39569;51.090;-1.786;2023-05-01T09:24:21;101128.88;;;26.36;39.09
53246;BME280;39569;51.090;-1.786;2023-05-01T09:26:49;101132.16;;;25.86;39.27
53246;BME280;39569;51.090;-1.786;2023-05-01T09:29:39;101130.81;;;26.50;38.24
53246;BME280;39569;51.090;-1.786;2023-05-01T09:32:13;101123.78;;;26.74;37.81
53246;BME280;39569;51.090;-1.786;2023-05-01T09:34:40;101122.69;;;26.75;38.74
53246;BME280;39569;51.090;-1.786;2023-05-01T09:37:10;101135.63;;;26.18;38.93
53246;BME280;39569;51.090;-1.786;2023-05-01T09:39:37;101136.91;;;24.95;40.59
53246;BME280;39569;51.090;-1.786;2023-05-01T09:42:04;101135.13;;;25.11;40.75
53246;BME280;39569;51.090;-1.786;2023-05-01T09:44:41;101141.25;;;25.23;39.73
53246;BME280;39569;51.090;-1.786;2023-05-01T09:47:09;101136.00;;;25.48;39.59
53246;BME280;39569;51.090;-1.786;2023-05-01T09:49:44;101130.22;;;26.33;39.18
53246;BME280;39569;51.090;-1.786;2023-05-01T09:52:12;101137.56;;;27.09;37.64
53246;BME280;39569;51.090;-1.786;2023-05-01T09:54:39;101137.00;;;27.73;35.97
53246;BME280;39569;51.090;-1.786;2023-05-01T09:57:06;101128.91;;;28.22;34.22
53246;BME280;39569;51.090;-1.786;2023-05-01T09:59:34;101137.31;;;27.31;35.26
53246;BME280;39569;51.090;-1.786;2023-05-01T10:02:02;101134.25;;;26.87;35.39
53246;BME280;39569;51.090;-1.786;2023-05-01T10:04:29;101141.34;;;27.79;35.23
53246;BME280;39569;51.090;-1.786;2023-05-01T10:06:56;101141.09;;;26.95;36.01
53246;BME280;39569;51.090;-1.786;2023-05-01T10:09:27;101151.41;;;26.01;37.96
53246;BME280;39569;51.090;-1.786;2023-05-01T10:11:55;101157.66;;;25.91;38.26
53246;BME280;39569;51.090;-1.786;2023-05-01T10:14:23;101156.56;;;25.92;38.49
53246;BME280;39569;51.090;-1.786;2023-05-01T10:16:51;101151.13;;;26.59;37.81
53246;BME280;39569;51.090;-1.786;2023-05-01T10:19:20;101152.91;;;26.95;36.87
53246;BME280;39569;51.090;-1.786;2023-05-01T10:21:46;101157.53;;;26.85;37.23
53246;BME280;39569;51.090;-1.786;2023-05-01T10:24:14;101158.28;;;26.65;36.87
53246;BME280;39569;51.090;-1.786;2023-05-01T10:26:41;101160.06;;;27.52;35.74
53246;BME280;39569;51.090;-1.786;2023-05-01T10:29:08;101144.25;;;28.33;33.72
53246;BME280;39569;51.090;-1.786;2023-05-01T10:31:35;101151.63;;;28.47;34.67
53246;BME280;39569;51.090;-1.786;2023-05-01T10:34:02;101151.41;;;28.24;33.66
53246;BME280;39569;51.090;-1.786;2023-05-01T10:36:35;101145.31;;;28.42;34.21
53246;BME280;39569;51.090;-1.786;2023-05-01T10:39:03;101147.88;;;28.18;34.36
53246;BME280;39569;51.090;-1.786;2023-05-01T10:42:04;101148.78;;;27.78;34.99
53246;BME280;39569;51.090;-1.786;2023-05-01T10:44:35;101149.66;;;27.64;34.78
53246;BME280;39569;51.090;-1.786;2023-05-01T10:50:08;101152.34;;;27.79;33.97
53246;BME280;39569;51.090;-1.786;2023-05-01T10:55:51;101154.09;;;28.39;33.45
53246;BME280;39569;51.090;-1.786;2023-05-01T10:58:55;101155.47;;;28.41;33.85
53246;BME280;39569;51.090;-1.786;2023-05-01T11:01:30;101159.31;;;29.38;32.16
53246;BME280;39569;51.090;-1.786;2023-05-01T11:03:58;101160.31;;;30.93;31.15
53246;BME280;39569;51.090;-1.786;2023-05-01T11:06:25;101157.31;;;29.77;30.92
53246;BME280;39569;51.090;-1.786;2023-05-01T11:08:52;101152.19;;;31.02;28.88
53246;BME280;39569;51.090;-1.786;2023-05-01T11:11:46;101150.19;;;30.23;31.96
53246;BME280;39569;51.090;-1.786;2023-05-01T11:14:15;101147.19;;;29.72;30.70
53246;BME280;39569;51.090;-1.786;2023-05-01T11:16:43;101149.72;;;29.64;31.13
53246;BME280;39569;51.090;-1.786;2023-05-01T11:19:44;101135.97;;;30.40;31.29
53246;BME280;39569;51.090;-1.786;2023-05-01T11:22:12;101140.78;;;31.73;28.53
53246;BME280;39569;51.090;-1.786;2023-05-01T11:24:39;101147.84;;;30.96;28.43
53246;BME280;39569;51.090;-1.786;2023-05-01T11:27:12;101149.00;;;30.71;29.99
53246;BME280;39569;51.090;-1.786;2023-05-01T11:29:39;101136.72;;;30.82;28.78
53246;BME280;39569;51.090;-1.786;2023-05-01T11:32:08;101150.38;;;31.11;29.89
53246;BME280;39569;51.090;-1.786;2023-05-01T11:34:36;101138.75;;;31.46;28.35
53246;BME280;39569;51.090;-1.786;2023-05-01T11:37:03;101142.25;;;31.01;29.27
53246;BME280;39569;51.090;-1.786;2023-05-01T11:39:30;101139.97;;;30.24;28.93
53246;BME280;39569;51.090;-1.786;2023-05-01T11:42:06;101140.34;;;29.93;29.78
53246;BME280;39569;51.090;-1.786;2023-05-01T11:44:34;101159.13;;;29.58;31.54
53246;BME280;39569;51.090;-1.786;2023-05-01T11:47:01;101151.22;;;27.90;32.53
53246;BME280;39569;51.090;-1.786;2023-05-01T11:49:28;101165.81;;;27.80;33.10
53246;BME280;39569;51.090;-1.786;2023-05-01T11:51:55;101160.56;;;26.98;35.04
53246;BME280;39569;51.090;-1.786;2023-05-01T11:54:23;101158.66;;;26.99;34.38
53246;BME280;39569;51.090;-1.786;2023-05-01T11:56:57;101162.25;;;27.75;33.40
53246;BME280;39569;51.090;-1.786;2023-05-01T11:59:24;101161.16;;;27.76;33.96
53246;BME280;39569;51.090;-1.786;2023-05-01T12:01:53;101162.53;;;27.68;33.88
53246;BME280;39569;51.090;-1.786;2023-05-01T12:04:25;101162.66;;;26.66;35.53
53246;BME280;39569;51.090;-1.786;2023-05-01T12:06:52;101170.88;;;26.66;36.31
53246;BME280;39569;51.090;-1.786;2023-05-01T12:09:20;101169.84;;;26.77;35.76
53246;BME280;39569;51.090;-1.786;2023-05-01T12:11:48;101181.97;;;26.96;35.84
53246;BME280;39569;51.090;-1.786;2023-05-01T12:14:16;101179.50;;;26.90;35.59
53246;BME280;39569;51.090;-1.786;2023-05-01T12:16:44;101170.75;;;27.08;35.70
53246;BME280;39569;51.090;-1.786;2023-05-01T12:19:14;101174.06;;;27.40;35.04
53246;BME280;39569;51.090;-1.786;2023-05-01T12:21:41;101162.25;;;27.70;35.29
53246;BME280;39569;51.090;-1.786;2023-05-01T12:24:08;101165.03;;;28.59;33.84
53246;BME280;39569;51.090;-1.786;2023-05-01T12:26:35;101159.34;;;29.95;31.96
53246;BME280;39569;51.090;-1.786;2023-05-01T12:29:03;101158.16;;;29.05;31.06
53246;BME280;39569;51.090;-1.786;2023-05-01T12:31:31;101166.50;;;28.90;31.33
53246;BME280;39569;51.090;-1.786;2023-05-01T12:33:59;101166.34;;;27.87;32.57
53246;BME280;39569;51.090;-1.786;2023-05-01T12:36:30;101172.72;;;27.53;34.12
53246;BME280;39569;51.090;-1.786;2023-05-01T12:38:58;101179.00;;;27.63;33.99
53246;BME280;39569;51.090;-1.786;2023-05-01T12:41:36;101172.13;;;27.31;33.90
53246;BME280;39569;51.090;-1.786;2023-05-01T12:44:15;101185.53;;;26.97;34.18
53246;BME280;39569;51.090;-1.786;2023-05-01T12:46:43;101191.53;;;26.27;36.20
53246;BME280;39569;51.090;-1.786;2023-05-01T12:49:15;101181.97;;;26.30;36.23
53246;BME280;39569;51.090;-1.786;2023-05-01T12:51:46;101190.50;;;27.15;35.89
53246;BME280;39569;51.090;-1.786;2023-05-01T12:54:18;101185.59;;;27.37;35.08